Time;durP1;ratioP1;P1;durP2;ratioP2;P2;SDS_P1;SDS_P2;PMS_P1;PMS_P2;Temp;Humidity;BMP_temperature;BMP_pressure;BME280_temperature;BME280_humidity;BME280_pressure;Samples;Min_cycle;Max_cycle;Signal;HPM_P1;HPM_P2
2022/01/15 00:01:04;;;;;;;11.52;5.07;;;6.60;99.90;;;;;;5104669;28;20062;-83
2022/01/15 00:03:30;;;;;;;11.27;4.63;;;6.70;99.90;;;;;;5065042;28;20473;-83
2022/01/15 00:05:56;;;;;;;66.70;7.93;;;7.10;99.90;;;;;;5089015;28;20096;-83
2022/01/15 00:08:23;;;;;;;11.05;4.20;;;6.90;99.90;;;;;;5089324;28;20416;-82
2022/01/15 00:10:49;;;;;;;14.52;5.13;;;7.20;99.90;;;;;;5103918;28;20035;-83
2022/01/15 00:13:25;;;;;;;85.35;8.70;;;7.50;99.90;;;;;;5088550;28;20052;-83
2022/01/15 00:16:01;;;;;;;12.13;5.60;;;7.40;99.90;;;;;;5089656;28;20043;-83
2022/01/15 00:18:46;;;;;;;15.45;5.55;;;7.60;99.90;;;;;;5056963;28;20031;-84
2022/01/15 00:21:13;;;;;;;10.80;4.88;;;8.00;99.90;;;;;;5058946;28;20036;-83
2022/01/15 00:23:41;;;;;;;13.88;4.97;;;7.40;99.90;;;;;;5068674;28;20097;-83
2022/01/15 00:26:07;;;;;;;12.95;5.03;;;7.70;99.90;;;;;;5086818;28;20134;-82
2022/01/15 00:28:32;;;;;;;11.13;4.30;;;6.70;99.90;;;;;;5107507;28;20122;-83
2022/01/15 00:30:58;;;;;;;11.18;4.50;;;6.50;99.90;;;;;;5069202;28;20052;-83
2022/01/15 00:33:25;;;;;;;11.57;4.70;;;;;;;;;;5090141;28;20454;-83
2022/01/15 00:35:52;;;;;;;10.98;4.43;;;6.50;99.90;;;;;;5070597;28;20127;-83
2022/01/15 00:38:18;;;;;;;11.43;4.70;;;6.70;99.90;;;;;;5091924;28;20058;-83
2022/01/15 00:40:44;;;;;;;10.77;4.70;;;7.20;99.90;;;;;;5074002;28;20027;-83
2022/01/15 00:43:09;;;;;;;10.13;4.10;;;7.60;99.90;;;;;;5109343;28;20076;-83
2022/01/15 00:45:35;;;;;;;10.82;3.72;;;7.70;99.90;;;;;;5072442;28;20109;-83
2022/01/15 00:48:02;;;;;;;11.82;4.35;;;7.00;99.90;;;;;;5092100;28;20046;-83
2022/01/15 00:50:28;;;;;;;12.40;4.00;;;7.00;99.90;;;;;;5092044;28;20477;-83
2022/01/15 00:52:53;;;;;;;10.93;4.28;;;7.20;99.90;;;;;;5092324;28;20245;-83
2022/01/15 00:55:20;;;;;;;12.38;4.30;;;6.40;99.90;;;;;;5091222;28;20069;-83
2022/01/15 00:57:46;;;;;;;18.95;4.68;;;6.80;99.90;;;;;;5091886;28;20039;-83
2022/01/15 01:00:17;;;;;;;13.88;4.68;;;7.30;99.90;;;;;;5074583;28;20036;-82
2022/01/15 01:02:43;;;;;;;13.05;4.75;;;6.50;99.90;;;;;;5108268;28;20058;-83
2022/01/15 01:05:10;;;;;;;11.93;4.00;;;7.70;99.90;;;;;;5074560;28;20114;-82
2022/01/15 01:07:36;;;;;;;13.38;4.60;;;6.40;99.90;;;;;;5091644;28;20035;-83
2022/01/15 01:23:28;;;;;;;9.75;3.25;;;7.80;99.90;;;;;;5067131;28;20070;-83
2022/01/15 01:26:01;;;;;;;10.23;3.20;;;7.40;99.90;;;;;;5074009;28;20479;-83
2022/01/15 01:28:34;;;;;;;10.65;3.20;;;6.50;99.90;;;;;;5075201;28;20031;-83
2022/01/15 01:31:09;;;;;;;13.32;3.60;;;6.40;99.90;;;;;;5108438;28;20051;-84
2022/01/15 01:33:42;;;;;;;17.42;3.58;;;6.40;99.90;;;;;;5060221;28;20039;-84
2022/01/15 01:38:53;;;;;;;10.27;2.78;;;6.80;99.90;;;;;;5088980;28;20446;-83
2022/01/15 01:41:21;;;;;;;10.25;2.88;;;7.20;99.90;;;;;;5091063;28;20039;-83
2022/01/15 01:44:00;;;;;;;8.02;2.65;;;6.20;99.90;;;;;;5088183;28;20040;-83
2022/01/15 01:48:53;;;;;;;8.45;2.58;;;7.40;99.90;;;;;;5107977;28;20058;-83
2022/01/15 01:51:31;;;;;;;8.55;2.55;;;7.20;99.90;;;;;;5108351;28;20039;-83
2022/01/15 01:53:59;;;;;;;8.85;2.40;;;6.80;99.90;;;;;;5090850;28;20507;-83
2022/01/15 01:56:25;;;;;;;8.25;2.60;;;7.00;99.90;;;;;;5088187;28;20080;-83
2022/01/15 01:58:51;;;;;;;8.38;2.38;;;7.30;99.90;;;;;;5069582;28;20039;-83
2022/01/15 02:01:16;;;;;;;8.07;2.25;;;7.50;99.90;;;;;;5091197;28;20031;-83
2022/01/15 02:03:42;;;;;;;8.32;2.13;;;6.10;99.90;;;;;;5086803;28;20039;-83
2022/01/15 02:06:08;;;;;;;7.50;2.22;;;7.50;99.90;;;;;;5089421;28;20054;-83
2022/01/15 02:08:35;;;;;;;8.60;2.00;;;6.90;99.90;;;;;;5106060;28;20464;-83
2022/01/15 02:11:03;;;;;;;6.40;2.00;;;6.60;99.90;;;;;;5066925;28;20044;-83
2022/01/15 02:13:30;;;;;;;6.30;1.90;;;6.90;99.90;;;;;;5073488;28;20043;-83
2022/01/15 02:16:02;;;;;;;8.55;2.17;;;7.10;99.90;;;;;;5107637;28;20048;-83
2022/01/15 02:18:29;;;;;;;6.80;1.87;;;6.00;99.90;;;;;;5088898;28;20107;-82
2022/01/15 02:23:32;;;;;;;8.52;2.05;;;6.80;99.90;;;;;;5090683;28;20112;-83
2022/01/15 02:23:51;;;;;;;8.75;2.20;;;6.00;99.90;;;;;;5106059;28;20050;-83
2022/01/15 02:26:25;;;;;;;8.00;1.95;;;6.80;99.90;;;;;;5105378;28;20044;-82
2022/01/15 02:28:57;;;;;;;10.68;2.08;;;6.00;99.90;;;;;;5090686;28;20046;-83
2022/01/15 02:31:25;;;;;;;6.90;1.90;;;6.00;99.90;;;;;;5090496;28;20038;-83
2022/01/15 02:33:52;;;;;;;9.82;1.88;;;7.10;99.90;;;;;;5090097;28;20050;-83
2022/01/15 02:36:22;;;;;;;8.55;1.90;;;6.70;99.90;;;;;;5106761;28;20496;-83
2022/01/15 02:38:49;;;;;;;6.43;2.00;;;6.00;99.90;;;;;;5100978;28;20035;-83
2022/01/15 02:41:23;;;;;;;5.65;1.80;;;6.00;99.90;;;;;;5090591;28;20479;-83
2022/01/15 02:43:49;;;;;;;8.35;1.90;;;7.00;99.90;;;;;;5087480;28;20091;-83
2022/01/15 02:48:51;;;;;;;7.13;1.85;;;6.00;99.90;;;;;;5107332;28;20050;-83
2022/01/15 02:51:22;;;;;;;8.23;1.92;;;5.90;99.90;;;;;;5107189;28;20044;-83
2022/01/15 02:53:55;;;;;;;8.13;2.00;;;7.20;99.90;;;;;;5089917;28;20464;-83
2022/01/15 02:56:24;;;;;;;8.35;2.20;;;5.90;99.90;;;;;;5106209;28;20126;-83
2022/01/15 02:58:50;;;;;;;5.88;1.83;;;6.90;99.90;;;;;;5090390;28;20480;-83
2022/01/15 03:01:16;;;;;;;6.30;2.00;;;5.90;99.90;;;;;;5090042;28;20054;-83
2022/01/15 03:03:41;;;;;;;9.27;2.30;;;7.10;99.90;;;;;;5070909;28;20102;-83
2022/01/15 03:06:16;;;;;;;7.28;2.15;;;7.20;99.90;;;;;;5089932;28;20047;-83
2022/01/15 03:08:43;;;;;;;7.30;2.13;;;7.50;99.90;;;;;;5072028;28;20078;-83
2022/01/15 03:11:09;;;;;;;7.20;1.90;;;6.50;99.90;;;;;;5106726;28;20131;-83
2022/01/15 03:13:37;;;;;;;6.18;1.90;;;6.30;99.90;;;;;;5089847;28;20054;-83
2022/01/15 03:16:04;;;;;;;7.35;2.10;;;6.00;99.90;;;;;;5107313;28;20039;-82
2022/01/15 03:18:30;;;;;;;7.10;2.13;;;5.90;99.90;;;;;;5106251;28;20039;-83
2022/01/15 03:20:56;;;;;;;7.05;2.20;;;7.30;99.90;;;;;;5073183;28;20095;-83
2022/01/15 03:23:21;;;;;;;6.90;2.22;;;6.40;99.90;;;;;;5073357;28;20150;-83
2022/01/15 03:25:47;;;;;;;7.68;2.20;;;7.40;99.90;;;;;;5072164;28;20050;-83
2022/01/15 03:28:13;;;;;;;7.97;2.30;;;5.90;99.90;;;;;;5089288;28;20256;-83
2022/01/15 03:30:39;;;;;;;7.82;2.30;;;5.90;99.90;;;;;;5089276;28;20432;-82
2022/01/15 03:33:06;;;;;;;7.03;2.20;;;6.00;99.90;;;;;;5072793;28;20038;-83
2022/01/15 03:35:32;;;;;;;7.70;2.33;;;7.10;99.90;;;;;;5089368;28;20285;-83
2022/01/15 03:37:57;;;;;;;7.93;2.28;;;7.10;99.90;;;;;;5104105;28;20036;-82
2022/01/15 03:40:23;;;;;;;6.70;2.22;;;7.20;99.90;;;;;;5089459;28;20050;-83
2022/01/15 03:42:49;;;;;;;8.65;2.63;;;7.10;99.90;;;;;;5071586;28;20477;-83
2022/01/15 03:45:16;;;;;;;6.85;2.30;;;6.00;99.90;;;;;;5106529;28;20035;-84
2022/01/15 03:47:43;;;;;;;7.95;2.22;;;7.00;99.90;;;;;;5089305;28;20051;-83
2022/01/15 03:50:10;;;;;;;7.45;2.20;;;7.00;99.90;;;;;;5088464;28;20385;-83
2022/01/15 03:52:35;;;;;;;7.97;2.47;;;6.00;99.90;;;;;;5106395;28;20503;-83
2022/01/15 03:55:02;;;;;;;7.68;2.22;;;7.40;99.90;;;;;;5106106;28;20039;-83
2022/01/15 03:57:28;;;;;;;7.20;2.40;;;7.40;99.90;;;;;;5088235;28;20100;-83
2022/01/15 03:59:53;;;;;;;7.78;2.50;;;7.20;99.90;;;;;;5088445;28;20047;-83
2022/01/15 04:02:19;;;;;;;8.35;2.50;;;6.00;99.90;;;;;;5089627;28;20027;-83
2022/01/15 04:04:45;;;;;;;7.13;2.30;;;6.50;99.90;;;;;;5055884;28;20403;-83
2022/01/15 04:07:10;;;;;;;7.13;2.30;;;6.00;99.90;;;;;;5106140;28;20085;-83
2022/01/15 04:09:36;;;;;;;7.38;2.50;;;7.40;99.90;;;;;;5074461;28;20582;-83
2022/01/15 04:12:03;;;;;;;6.60;2.22;;;6.00;99.90;;;;;;5093892;27;20031;-83
2022/01/15 04:14:28;;;;;;;7.53;2.47;;;6.00;99.90;;;;;;5113442;27;20559;-83
2022/01/15 04:16:54;;;;;;;6.53;2.38;;;6.00;99.90;;;;;;5096529;27;20035;-83
2022/01/15 04:19:20;;;;;;;8.00;2.70;;;7.10;99.90;;;;;;5079291;27;20031;-83
2022/01/15 04:21:46;;;;;;;8.05;2.70;;;6.00;99.90;;;;;;5095809;27;20031;-83
2022/01/15 04:24:12;;;;;;;8.38;2.67;;;7.10;99.90;;;;;;5096267;27;20109;-83
2022/01/15 04:26:37;;;;;;;7.13;2.53;;;7.40;99.90;;;;;;5096380;27;20043;-83
2022/01/15 04:29:05;;;;;;;10.75;2.60;;;7.10;99.90;;;;;;5078708;27;20031;-83
2022/01/15 04:31:46;;;;;;;35.25;3.38;;;7.50;99.90;;;;;;5062481;27;20067;-83
2022/01/15 04:34:13;;;;;;;7.53;2.60;;;6.30;99.90;;;;;;5098251;27;20080;-83
2022/01/15 04:36:39;;;;;;;7.57;2.47;;;7.30;99.90;;;;;;5112920;27;20027;-83
2022/01/15 04:39:05;;;;;;;7.63;2.50;;;6.10;99.90;;;;;;5059318;27;20100;-83
2022/01/15 04:41:31;;;;;;;8.75;2.92;;;6.00;99.90;;;;;;5095755;27;20045;-83
2022/01/15 04:43:56;;;;;;;8.27;2.67;;;7.30;99.90;;;;;;5079154;27;20576;-84
2022/01/15 04:46:22;;;;;;;9.93;2.50;;;6.30;99.90;;;;;;5077105;27;20516;-83
2022/01/15 04:48:48;;;;;;;8.18;2.45;;;6.90;99.90;;;;;;5096060;27;20034;-83
2022/01/15 04:51:14;;;;;;;17.50;2.92;;;7.10;99.90;;;;;;5060889;27;20099;-83
2022/01/15 04:53:39;;;;;;;10.05;2.70;;;6.00;99.90;;;;;;5095580;27;20503;-82
2022/01/15 04:56:05;;;;;;;7.85;2.45;;;6.00;99.90;;;;;;5079315;27;20039;-83
2022/01/15 04:58:31;;;;;;;6.47;2.10;;;6.90;99.90;;;;;;5076544;27;20172;-83
2022/01/15 05:00:56;;;;;;;7.20;2.20;;;5.90;99.90;;;;;;5075337;27;20048;-83
2022/01/15 05:03:22;;;;;;;5.82;2.03;;;7.10;99.90;;;;;;5070709;27;20039;-83
2022/01/15 05:05:48;;;;;;;7.90;2.20;;;5.90;99.90;;;;;;5078651;27;20084;-83
2022/01/15 05:08:13;;;;;;;6.28;2.00;;;6.00;99.90;;;;;;5077871;27;20031;-83
2022/01/15 05:10:45;;;;;;;10.13;2.17;;;7.40;99.90;;;;;;5095082;27;20047;-83
2022/01/15 05:13:14;;;;;;;6.77;2.07;;;5.90;99.90;;;;;;5090880;28;20062;-83
2022/01/15 05:15:42;;;;;;;6.25;1.90;;;5.90;99.90;;;;;;5106470;28;20032;-83
2022/01/15 05:18:08;;;;;;;7.80;2.00;;;7.20;99.90;;;;;;5108979;28;20055;-83
2022/01/15 05:20:36;;;;;;;7.32;1.95;;;5.90;99.90;;;;;;5074307;28;20054;-83
2022/01/15 05:23:01;;;;;;;6.10;2.00;;;5.90;99.90;;;;;;5091447;28;20496;-83
2022/01/15 05:25:27;;;;;;;6.93;1.80;;;5.90;99.90;;;;;;5055840;28;20047;-83
2022/01/15 05:27:53;;;;;;;12.50;1.90;;;6.60;99.90;;;;;;5092139;28;20063;-83
2022/01/15 05:30:19;;;;;;;6.95;1.95;;;6.90;99.90;;;;;;5070284;28;20036;-83
2022/01/15 05:32:44;;;;;;;7.15;1.80;;;6.10;99.90;;;;;;5092449;28;20027;-83
2022/01/15 05:35:11;;;;;;;7.20;1.80;;;5.80;99.90;;;;;;5091242;28;20702;-83
2022/01/15 05:37:37;;;;;;;5.65;1.75;;;5.80;99.90;;;;;;5091945;28;20115;-83
2022/01/15 05:40:04;;;;;;;7.28;1.80;;;5.80;99.90;;;;;;5088068;28;20547;-83
2022/01/15 05:42:30;;;;;;;6.40;1.90;;;5.80;99.90;;;;;;5091015;28;20189;-83
2022/01/15 05:44:55;;;;;;;10.85;2.13;;;5.80;99.90;;;;;;5091609;28;20119;-82
2022/01/15 05:47:21;;;;;;;6.13;1.95;;;5.80;99.90;;;;;;5072795;28;20047;-83
2022/01/15 05:49:47;;;;;;;7.82;2.20;;;5.80;99.90;;;;;;5107187;28;20512;-83
2022/01/15 05:52:13;;;;;;;12.02;2.45;;;6.80;99.90;;;;;;5107566;28;20027;-83
2022/01/15 05:54:38;;;;;;;6.15;1.90;;;6.40;99.90;;;;;;5107911;28;20541;-83
2022/01/15 05:57:04;;;;;;;5.47;1.70;;;6.40;99.90;;;;;;5107761;28;20089;-83
2022/01/15 05:59:30;;;;;;;6.15;1.70;;;5.80;99.90;;;;;;5068518;28;20506;-83
2022/01/15 06:01:55;;;;;;;5.50;1.70;;;6.80;99.90;;;;;;5107855;28;20048;-83
2022/01/15 06:04:21;;;;;;;9.15;2.00;;;7.70;99.90;;;;;;5057906;28;20031;-83
2022/01/15 06:06:47;;;;;;;8.23;1.98;;;5.70;99.90;;;;;;5071850;28;20082;-83
2022/01/15 06:09:12;;;;;;;7.18;2.00;;;6.60;99.90;;;;;;5073045;28;20055;-82
2022/01/15 06:11:40;;;;;;;10.40;1.80;;;5.80;99.90;;;;;;5072054;28;20085;-82
2022/01/15 06:14:05;;;;;;;11.98;2.17;;;5.80;99.90;;;;;;5091064;28;20130;-83
2022/01/15 06:16:31;;;;;;;8.32;1.90;;;6.30;99.90;;;;;;5107348;28;20123;-84
2022/01/15 06:18:57;;;;;;;6.25;1.67;;;5.80;99.90;;;;;;5090803;28;20039;-83
2022/01/15 06:21:23;;;;;;;5.30;1.73;;;5.80;99.90;;;;;;5090886;28;20513;-83
2022/01/15 06:23:48;;;;;;;8.13;1.90;;;7.20;99.90;;;;;;5089677;28;20035;-82
2022/01/15 06:26:15;;;;;;;8.07;2.00;;;;;;;;;;5065636;28;20151;-83
2022/01/15 06:28:41;;;;;;;8.38;1.83;;;5.80;99.90;;;;;;5107280;28;20423;-83
2022/01/15 06:31:06;;;;;;;7.25;2.00;;;6.20;99.90;;;;;;5106826;28;20122;-83
2022/01/15 06:33:32;;;;;;;7.07;1.70;;;5.80;99.90;;;;;;5070918;28;20461;-83
2022/01/15 06:35:58;;;;;;;5.55;1.48;;;5.70;99.90;;;;;;5071348;28;20032;-83
2022/01/15 06:38:24;;;;;;;7.32;1.67;;;7.10;99.90;;;;;;5090012;28;20036;-83
2022/01/15 06:40:50;;;;;;;8.63;2.03;;;7.20;99.90;;;;;;5088794;28;20063;-83
2022/01/15 06:43:16;;;;;;;9.15;1.83;;;7.40;99.90;;;;;;5071193;28;20071;-83
2022/01/15 06:45:41;;;;;;;9.63;2.00;;;6.20;99.90;;;;;;5070127;28;20501;-84
2022/01/15 06:48:07;;;;;;;10.82;1.70;;;6.90;99.90;;;;;;5104920;28;20043;-83
2022/01/15 06:50:33;;;;;;;10.52;2.03;;;5.70;99.90;;;;;;5106912;28;20096;-82
2022/01/15 06:52:59;;;;;;;9.25;1.80;;;7.30;99.90;;;;;;5089700;28;20114;-82
2022/01/15 06:55:25;;;;;;;7.97;1.90;;;5.80;99.90;;;;;;5063310;28;20111;-82
2022/01/15 06:57:51;;;;;;;8.50;1.98;;;7.60;99.90;;;;;;5090091;28;20067;-83
2022/01/15 07:00:17;;;;;;;9.02;2.30;;;6.90;99.90;;;;;;5089520;28;20559;-83
2022/01/15 07:02:42;;;;;;;9.00;2.50;;;5.70;99.90;;;;;;5089699;28;20084;-83
2022/01/15 07:05:09;;;;;;;10.95;2.70;;;6.80;99.90;;;;;;5089888;28;20035;-83
2022/01/15 07:07:39;;;;;;;8.57;2.42;;;5.70;99.90;;;;;;5062878;28;20036;-83
2022/01/15 07:10:06;;;;;;;9.32;2.90;;;5.80;99.90;;;;;;5089329;28;20078;-83
2022/01/15 07:12:32;;;;;;;10.55;3.50;;;5.80;99.90;;;;;;5072730;28;20065;-82
2022/01/15 07:14:57;;;;;;;12.95;3.92;;;5.80;99.90;;;;;;5089999;28;20182;-83
2022/01/15 07:17:23;;;;;;;11.82;3.60;;;5.80;99.90;;;;;;5089717;28;20038;-83
2022/01/15 07:19:51;;;;;;;12.32;3.78;;;6.80;99.90;;;;;;5078051;28;20136;-82
2022/01/15 07:22:17;;;;;;;10.75;3.40;;;7.20;99.90;;;;;;5088644;28;20035;-83
2022/01/15 07:24:42;;;;;;;9.82;3.30;;;5.80;99.90;;;;;;5089323;28;20046;-83
2022/01/15 07:27:08;;;;;;;8.77;3.05;;;5.70;99.90;;;;;;5068505;28;20085;-83
2022/01/15 07:29:36;;;;;;;10.27;3.28;;;6.50;99.90;;;;;;5106183;28;20036;-82
2022/01/15 07:32:03;;;;;;;10.45;3.50;;;5.70;99.90;;;;;;5072574;28;20058;-83
2022/01/15 07:34:29;;;;;;;9.65;3.65;;;5.80;99.90;;;;;;5072901;28;20027;-83
2022/01/15 07:36:59;;;;;;;10.30;3.70;;;6.20;99.90;;;;;;5089210;28;20111;-83
2022/01/15 07:39:26;;;;;;;10.35;3.70;;;6.50;99.90;;;;;;5088221;28;20719;-83
2022/01/15 07:41:54;;;;;;;9.10;3.42;;;6.50;99.90;;;;;;5104273;28;20511;-83
2022/01/15 07:44:20;;;;;;;9.02;3.10;;;5.80;99.90;;;;;;5092519;28;20035;-83
2022/01/15 07:46:45;;;;;;;10.10;3.00;;;6.70;99.90;;;;;;5072023;28;20255;-84
2022/01/15 07:49:11;;;;;;;8.25;3.05;;;5.80;99.90;;;;;;5076140;28;20023;-83
2022/01/15 07:51:37;;;;;;;8.32;3.00;;;6.60;99.90;;;;;;5086711;28;20476;-82
2022/01/15 07:54:03;;;;;;;9.73;3.25;;;7.20;99.90;;;;;;5111542;28;20066;-83
2022/01/15 07:56:29;;;;;;;8.25;3.00;;;5.70;99.90;;;;;;5094172;28;20088;-83
2022/01/15 07:58:55;;;;;;;8.82;3.20;;;6.80;99.90;;;;;;5110353;28;20480;-83
2022/01/15 08:01:20;;;;;;;8.35;3.13;;;6.00;99.90;;;;;;5074936;28;20035;-83
2022/01/15 08:03:48;;;;;;;8.82;3.50;;;6.50;99.90;;;;;;5076726;28;20518;-83
2022/01/15 08:06:14;;;;;;;8.55;3.10;;;7.50;99.90;;;;;;5077890;28;20036;-83
2022/01/15 08:08:40;;;;;;;10.15;3.35;;;5.80;99.90;;;;;;5076452;28;20072;-82
2022/01/15 08:11:06;;;;;;;8.23;3.08;;;7.10;99.90;;;;;;5110467;28;20038;-82
2022/01/15 08:13:32;;;;;;;9.25;3.75;;;6.90;99.90;;;;;;5110452;28;20044;-83
2022/01/15 08:15:59;;;;;;;9.68;3.47;;;6.90;99.90;;;;;;5089764;28;20039;-82
2022/01/15 08:18:26;;;;;;;9.38;3.83;;;5.80;99.90;;;;;;5092267;28;20163;-82
2022/01/15 08:20:52;;;;;;;9.85;3.42;;;7.40;99.90;;;;;;5107312;28;20086;-82
2022/01/15 08:23:18;;;;;;;9.55;3.55;;;5.80;99.90;;;;;;5109362;28;20071;-82
2022/01/15 08:25:44;;;;;;;9.02;3.30;;;7.30;99.90;;;;;;5110162;28;20506;-82
2022/01/15 08:28:10;;;;;;;8.77;3.47;;;7.20;99.90;;;;;;5110214;28;20285;-82
2022/01/15 08:30:35;;;;;;;10.02;3.60;;;7.50;99.90;;;;;;5076248;28;20039;-83
2022/01/15 08:33:01;;;;;;;9.68;3.13;;;7.10;99.90;;;;;;5092384;28;20189;-82
2022/01/15 08:35:27;;;;;;;8.10;2.90;;;5.90;99.90;;;;;;5093084;28;20473;-83
2022/01/15 08:37:54;;;;;;;7.40;2.70;;;5.90;99.90;;;;;;5059283;28;20054;-82
2022/01/15 08:40:21;;;;;;;7.60;2.60;;;5.90;99.90;;;;;;5108874;28;20423;-82
2022/01/15 08:42:48;;;;;;;7.28;2.60;;;5.80;99.90;;;;;;5070436;28;20051;-82
2022/01/15 08:45:15;;;;;;;8.30;2.90;;;6.70;99.90;;;;;;5107520;28;20407;-82
2022/01/15 08:47:41;;;;;;;8.88;3.17;;;5.90;99.90;;;;;;5091644;28;20196;-82
2022/01/15 08:50:10;;;;;;;8.30;2.88;;;5.90;99.90;;;;;;5109036;28;20044;-82
2022/01/15 08:52:36;;;;;;;8.43;3.10;;;5.80;99.90;;;;;;5074023;28;20093;-82
2022/01/15 08:55:04;;;;;;;7.65;2.80;;;7.50;99.90;;;;;;5068864;28;20602;-83
2022/01/15 08:57:30;;;;;;;7.60;2.80;;;5.50;99.90;;;;;;5089833;28;20047;-82
2022/01/15 08:59:55;;;;;;;7.43;2.88;;;5.90;99.90;;;;;;5090313;28;20036;-82
2022/01/15 09:02:21;;;;;;;7.82;2.70;;;5.90;99.90;;;;;;5070349;28;20139;-82
2022/01/15 09:04:47;;;;;;;8.38;3.20;;;7.50;99.90;;;;;;5071822;28;20032;-82
2022/01/15 09:07:13;;;;;;;8.38;3.10;;;5.90;99.90;;;;;;5109830;28;20031;-84
2022/01/15 09:09:40;;;;;;;8.45;2.88;;;5.90;99.90;;;;;;5067426;28;20070;-83
2022/01/15 09:12:07;;;;;;;8.05;2.72;;;6.20;99.90;;;;;;5092908;27;20039;-83
2022/01/15 09:14:32;;;;;;;8.80;2.80;;;5.90;99.90;;;;;;5094757;27;20181;-85
2022/01/15 09:16:59;;;;;;;7.78;2.90;;;6.70;99.90;;;;;;5094781;27;20062;-83
2022/01/15 09:19:24;;;;;;;8.25;2.85;;;6.80;99.90;;;;;;5112215;27;20091;-84
2022/01/15 09:21:50;;;;;;;8.20;2.95;;;5.90;99.90;;;;;;5078315;27;20031;-84
2022/01/15 09:24:16;;;;;;;9.55;3.15;;;6.80;99.90;;;;;;5110931;27;20039;-83
2022/01/15 09:31:56;;;;;;;9.68;2.88;;;7.90;99.90;;;;;;5111771;27;20795;-84
2022/01/15 09:34:21;;;;;;;7.93;2.67;;;5.90;99.90;;;;;;5111134;27;20043;-84
2022/01/15 09:36:47;;;;;;;10.48;3.03;;;7.20;99.90;;;;;;5061455;27;20118;-84
2022/01/15 09:39:14;;;;;;;8.38;2.67;;;;;;;;;;5111896;27;20455;-84
2022/01/15 09:41:43;;;;;;;7.82;2.90;;;5.90;99.90;;;;;;5093910;27;20748;-85
2022/01/15 09:44:10;;;;;;;8.07;2.85;;;5.90;99.90;;;;;;5109572;27;20103;-84
2022/01/15 09:46:36;;;;;;;8.30;3.20;;;7.00;99.90;;;;;;5061593;27;20023;-84
2022/01/15 09:49:02;;;;;;;8.15;3.20;;;5.90;99.90;;;;;;5094813;27;20053;-84
2022/01/15 09:51:30;;;;;;;10.18;2.97;;;7.00;99.90;;;;;;5092012;27;20518;-84
2022/01/15 09:53:56;;;;;;;8.57;3.20;;;5.90;99.90;;;;;;5093733;27;20038;-84
2022/01/15 09:56:22;;;;;;;8.65;3.47;;;7.30;99.90;;;;;;5109313;27;20035;-84
2022/01/15 09:58:48;;;;;;;9.80;3.97;;;6.90;99.90;;;;;;5090593;27;20035;-83
2022/01/15 10:01:14;;;;;;;10.50;4.40;;;5.90;99.90;;;;;;5094987;27;20418;-84
2022/01/15 10:03:39;;;;;;;9.73;4.00;;;5.90;99.90;;;;;;5092408;27;20551;-84
2022/01/15 10:06:06;;;;;;;11.98;5.03;;;6.90;99.90;;;;;;5094580;27;20130;-84
2022/01/15 10:08:32;;;;;;;11.52;4.82;;;7.50;99.90;;;;;;5106490;27;20466;-84
2022/01/15 10:10:59;;;;;;;12.52;5.55;;;6.00;99.90;;;;;;5092912;27;20108;-84
2022/01/15 10:13:29;;;;;;;12.65;5.43;;;6.00;99.90;;;;;;5090500;28;20059;-84
2022/01/15 10:15:58;;;;;;;12.15;5.53;;;6.10;99.90;;;;;;5102352;28;20035;-84
2022/01/15 10:18:42;;;;;;;12.52;5.57;;;6.10;99.90;;;;;;5120294;27;20040;-84
2022/01/15 10:21:17;;;;;;;13.73;6.18;;;6.60;99.90;;;;;;5107870;28;20108;-83
2022/01/15 10:23:47;;;;;;;14.57;6.57;;;6.10;99.90;;;;;;5121454;27;20587;-83
2022/01/15 10:26:36;;;;;;;14.02;6.90;;;7.40;99.90;;;;;;5104037;28;20382;-84
2022/01/15 10:29:07;;;;;;;15.23;7.25;;;7.70;99.90;;;;;;5105418;28;20434;-84
2022/01/15 10:31:41;;;;;;;16.38;7.95;;;6.20;99.90;;;;;;5106280;28;20501;-84
2022/01/15 10:34:27;;;;;;;16.23;7.53;;;6.20;99.90;;;;;;5088853;28;20055;-84
2022/01/15 10:37:09;;;;;;;17.30;8.20;;;7.20;99.90;;;;;;5105960;28;20075;-84
2022/01/15 10:39:35;;;;;;;15.68;7.55;;;6.20;99.90;;;;;;5107328;28;20044;-84
2022/01/15 10:42:00;;;;;;;17.25;8.15;;;6.40;99.90;;;;;;5071280;28;20114;-83
2022/01/15 10:44:37;;;;;;;16.77;8.30;;;6.20;99.90;;;;;;5087313;28;20043;-84
2022/01/15 10:47:13;;;;;;;16.60;7.78;;;6.20;99.90;;;;;;5090964;28;20039;-84
2022/01/15 10:49:40;;;;;;;18.02;8.00;;;7.60;99.90;;;;;;5090812;28;20027;-84
2022/01/15 10:52:10;;;;;;;14.02;6.88;;;6.20;99.90;;;;;;5107657;28;20032;-84
2022/01/15 10:54:49;;;;;;;16.48;7.35;;;6.20;99.90;;;;;;5090737;28;20084;-84
2022/01/15 10:57:17;;;;;;;13.75;6.80;;;7.10;99.90;;;;;;5090690;28;20231;-84
2022/01/15 10:59:55;;;;;;;14.80;6.72;;;6.20;99.90;;;;;;5107260;28;20118;-84
2022/01/15 11:02:21;;;;;;;15.05;6.88;;;6.60;99.90;;;;;;5104600;28;20042;-84
2022/01/15 11:04:47;;;;;;;15.02;7.20;;;6.20;99.90;;;;;;5107710;28;20404;-84
2022/01/15 11:07:14;;;;;;;16.90;7.85;;;6.20;99.90;;;;;;5055120;28;20035;-84
2022/01/15 11:09:45;;;;;;;16.45;8.10;;;6.20;99.90;;;;;;5104601;28;20066;-84
2022/01/15 11:12:12;;;;;;;15.68;7.35;;;6.20;99.90;;;;;;5092010;27;20058;-83
2022/01/15 11:14:38;;;;;;;14.85;7.22;;;6.10;99.90;;;;;;5076714;27;20045;-83
2022/01/15 11:17:05;;;;;;;14.82;7.07;;;6.90;99.90;;;;;;5076333;27;20035;-84
2022/01/15 11:19:32;;;;;;;14.75;7.65;;;7.60;99.90;;;;;;5093810;28;20308;-84
2022/01/15 11:21:59;;;;;;;15.98;7.47;;;7.60;99.90;;;;;;5090580;28;20062;-84
2022/01/15 11:24:25;;;;;;;16.15;7.72;;;6.10;99.90;;;;;;5076464;28;20122;-84
2022/01/15 11:26:55;;;;;;;15.10;7.07;;;6.90;99.90;;;;;;5110193;28;20033;-84
2022/01/15 11:29:21;;;;;;;15.50;7.78;;;7.10;99.90;;;;;;5109587;28;20031;-84
2022/01/15 11:31:58;;;;;;;15.13;7.88;;;7.40;99.90;;;;;;5093457;28;20100;-83
2022/01/15 11:34:24;;;;;;;15.75;7.93;;;6.20;99.90;;;;;;5094017;28;20564;-84
2022/01/15 11:36:51;;;;;;;15.10;6.88;;;6.70;99.90;;;;;;5066632;28;20115;-84
2022/01/15 11:39:32;;;;;;;15.10;8.00;;;6.90;99.90;;;;;;5092857;28;20067;-84
2022/01/15 11:42:01;;;;;;;14.65;7.15;;;6.10;99.90;;;;;;5109696;28;20048;-84
2022/01/15 11:44:32;;;;;;;15.07;7.63;;;6.00;99.90;;;;;;5093712;28;20099;-84
2022/01/15 11:47:23;;;;;;;15.43;7.43;;;7.30;99.90;;;;;;5090170;28;20050;-83
2022/01/15 11:49:50;;;;;;;14.68;7.28;;;6.00;99.90;;;;;;5092360;28;20483;-84
2022/01/15 11:52:18;;;;;;;16.15;7.85;;;7.00;99.90;;;;;;5093127;28;20088;-84
2022/01/15 11:54:59;;;;;;;15.27;7.55;;;6.00;99.90;;;;;;5093634;28;20035;-83
2022/01/15 11:57:36;;;;;;;14.50;7.78;;;6.00;99.90;;;;;;5092967;28;20039;-84
2022/01/15 12:00:15;;;;;;;14.05;7.40;;;6.00;99.90;;;;;;5093399;28;20119;-84
2022/01/15 12:02:41;;;;;;;15.75;8.02;;;6.00;99.90;;;;;;5093230;28;20035;-84
2022/01/15 12:05:19;;;;;;;15.23;7.88;;;6.80;99.90;;;;;;5093524;28;20399;-84
2022/01/15 12:08:08;;;;;;;14.27;8.02;;;5.90;99.90;;;;;;5093020;28;20096;-84
2022/01/15 12:10:43;;;;;;;15.30;8.00;;;5.90;99.90;;;;;;5109901;28;20046;-84
2022/01/15 12:13:20;;;;;;;14.82;7.70;;;6.80;99.90;;;;;;5092338;28;20576;-84
2022/01/15 12:16:25;;;;;;;16.17;8.75;;;6.60;99.90;;;;;;5077205;28;20031;-84
2022/01/15 12:18:52;;;;;;;14.77;8.20;;;5.80;99.90;;;;;;5110023;28;20440;-84
2022/01/15 12:21:47;;;;;;;15.93;9.02;;;7.30;99.90;;;;;;5092778;28;20167;-84
2022/01/15 12:24:44;;;;;;;14.68;8.65;;;5.90;99.90;;;;;;5108634;28;20395;-84
2022/01/15 12:27:12;;;;;;;15.50;8.82;;;5.90;99.90;;;;;;5109709;28;20043;-83
2022/01/15 12:29:39;;;;;;;16.95;9.57;;;5.80;99.90;;;;;;5111306;27;20095;-84
2022/01/15 12:32:06;;;;;;;17.02;9.75;;;6.80;99.90;;;;;;5077584;27;20480;-84
2022/01/15 12:34:31;;;;;;;16.42;9.52;;;5.90;99.90;;;;;;5096643;27;20031;-84
2022/01/15 12:36:57;;;;;;;17.70;9.95;;;7.20;99.90;;;;;;5071717;27;20665;-84
2022/01/15 12:39:38;;;;;;;16.77;9.63;;;6.10;99.90;;;;;;5096081;27;20042;-84
2022/01/15 12:42:05;;;;;;;17.70;9.98;;;6.70;99.90;;;;;;5096452;27;20027;-84
2022/01/15 12:44:43;;;;;;;16.13;9.55;;;5.90;99.90;;;;;;5096410;27;21481;-84
2022/01/15 12:47:09;;;;;;;17.13;9.23;;;5.90;99.90;;;;;;5108253;27;20067;-84
2022/01/15 12:49:54;;;;;;;19.23;10.95;;;5.80;99.90;;;;;;5096531;27;20027;-84
2022/01/15 12:52:24;;;;;;;20.67;11.27;;;6.50;99.90;;;;;;5110937;27;20035;-83
2022/01/15 12:54:53;;;;;;;18.48;10.57;;;5.80;99.90;;;;;;5109541;27;20068;-84
2022/01/15 12:57:47;;;;;;;19.60;11.38;;;7.30;99.90;;;;;;5095838;27;20031;-83
2022/01/15 13:00:20;;;;;;;22.45;11.95;;;5.90;99.90;;;;;;5110036;27;20039;-84
2022/01/15 13:02:47;;;;;;;19.67;11.57;;;5.90;99.90;;;;;;5109982;27;20522;-84
2022/01/15 13:05:13;;;;;;;21.35;11.88;;;6.20;99.90;;;;;;5112736;27;20280;-85
2022/01/15 13:07:53;;;;;;;21.33;12.07;;;5.80;99.90;;;;;;5097274;27;20043;-84
2022/01/15 13:10:30;;;;;;;20.52;11.75;;;5.80;99.90;;;;;;5109601;27;20067;-85
2022/01/15 13:12:56;;;;;;;20.02;11.40;;;6.50;99.90;;;;;;5115282;27;20833;-84
2022/01/15 13:15:24;;;;;;;19.65;10.98;;;7.00;99.90;;;;;;5094804;27;20035;-84
2022/01/15 13:17:50;;;;;;;21.00;11.48;;;7.50;99.90;;;;;;5111554;27;20075;-84
2022/01/15 13:20:26;;;;;;;20.00;11.25;;;5.60;99.90;;;;;;5077837;27;20069;-84
2022/01/15 13:22:53;;;;;;;19.40;11.32;;;5.60;99.90;;;;;;5096001;27;20100;-84
2022/01/15 13:25:23;;;;;;;20.15;11.50;;;6.30;99.90;;;;;;5094533;27;20064;-84